Teller, Alaska
Current Conditions -  °F | °C
As of 5:06 PM on Saturday 25 Oct 2014 (Local Time) from PATE Reporting Station
Overcast Overcast  
Wind Chill: 21°   Ceiling: 1400
Heat Index: 32°   Visibility: 10mi
Dew Point: 30°   Wind: 16mph
Humidity: 93%   Direction: 230°SW
Pressure: 29.55"   Gusts: NA
Location:  65.26°N, 166.36°W
Report Text: PATE 260106Z AUTO 23014KT 10SM BKN014 OVC024 00/M01 A2955 RMK AO2 FZRANO
Loading
Personal Weather Stations






























Interactive Weather Map
Tropical Storm Tracking
New forecast layout! Learn more

10-Day Weather Forecast

Advertisements
Track Severe Weather on mobile